Time;durP1;ratioP1;P1;durP2;ratioP2;P2;SDS_P1;SDS_P2;PMS_P1;PMS_P2;Temp;Humidity;BMP_temperature;BMP_pressure;BME280_temperature;BME280_humidity;BME280_pressure;Samples;Min_cycle;Max_cycle;Signal;HPM_P1;HPM_P2
2022/09/08 00:01:13;;;;;;;7.75;6.65;;;;;;;14.21;100.00;93466.69;5090394;28;20043;-73
2022/09/08 00:03:40;;;;;;;7.25;6.22;;;;;;;14.18;100.00;93461.94;5093636;28;20113;-73
2022/09/08 00:06:11;;;;;;;7.75;6.53;;;;;;;14.13;100.00;93460.06;5104800;28;20503;-73
2022/09/08 00:08:38;;;;;;;8.07;6.47;;;;;;;14.08;100.00;93449.59;5092397;28;20044;-73
2022/09/08 00:11:09;;;;;;;8.88;6.28;;;;;;;14.09;100.00;93459.72;5090043;28;20040;-73
2022/09/08 00:13:39;;;;;;;6.80;5.95;;;;;;;14.13;100.00;93462.63;5098013;28;20044;-73
2022/09/08 00:16:07;;;;;;;7.55;6.00;;;;;;;14.13;100.00;93460.06;5101222;28;20050;-73
2022/09/08 00:18:35;;;;;;;8.10;6.93;;;;;;;14.16;100.00;93457.81;5101128;28;20051;-73
2022/09/08 00:21:02;;;;;;;8.48;6.85;;;;;;;14.11;100.00;93455.09;5099443;28;20052;-72
2022/09/08 00:23:29;;;;;;;8.25;6.53;;;;;;;14.11;100.00;93449.94;5104439;28;20039;-72
2022/09/08 00:25:59;;;;;;;8.00;6.03;;;;;;;14.13;100.00;93452.31;5107069;28;20134;-72
2022/09/08 00:28:27;;;;;;;8.07;6.50;;;;;;;14.11;100.00;93449.94;5109634;28;20480;-73
2022/09/08 00:30:54;;;;;;;7.57;6.72;;;;;;;14.13;100.00;93440.16;5109762;28;20100;-72
2022/09/08 00:33:22;;;;;;;7.80;6.43;;;;;;;14.10;100.00;93448.38;5109641;28;20539;-72
2022/09/08 00:35:50;;;;;;;8.07;5.88;;;;;;;14.08;100.00;93447.81;5109456;28;20093;-72
2022/09/08 00:38:19;;;;;;;8.70;6.25;;;;;;;13.94;100.00;93441.28;5109740;28;20070;-72
2022/09/08 00:40:47;;;;;;;9.30;6.15;;;;;;;14.00;100.00;93448.94;5109862;28;20055;-72
2022/09/08 00:43:35;;;;;;;10.55;7.03;;;;;;;13.91;100.00;93450.28;5109622;28;20421;-72
2022/09/08 00:46:14;;;;;;;11.43;6.45;;;;;;;13.97;100.00;93456.31;5109314;28;20048;-72
2022/09/08 00:48:44;;;;;;;7.95;6.50;;;;;;;13.93;100.00;93457.81;5109043;28;20063;-72
2022/09/08 00:51:12;;;;;;;7.63;6.13;;;;;;;13.85;100.00;93448.59;5109595;28;20044;-72
2022/09/08 00:53:39;;;;;;;7.88;6.68;;;;;;;13.86;100.00;93450.97;5109404;28;20044;-72
2022/09/08 00:56:07;;;;;;;8.40;7.03;;;;;;;13.87;100.00;93449.94;5109263;28;20084;-72
2022/09/08 00:58:37;;;;;;;7.22;6.13;;;;;;;13.76;100.00;93441.16;5109056;28;20089;-72
2022/09/08 01:01:05;;;;;;;8.30;6.43;;;;;;;13.81;100.00;93453.41;5109283;28;20410;-73
2022/09/08 01:03:33;;;;;;;8.63;6.90;;;;;;;13.84;100.00;93449.59;5109239;28;20116;-73
2022/09/08 01:06:10;;;;;;;7.75;6.72;;;;;;;13.81;100.00;93456.00;5109350;28;20441;-73
2022/09/08 01:14:44;;;;;;;7.53;6.72;;;;;;;13.65;100.00;93451.50;5108808;28;20435;-72
2022/09/08 01:17:16;;;;;;;7.97;6.90;;;;;;;13.60;100.00;93454.72;5109269;28;20154;-72
2022/09/08 01:19:46;;;;;;;8.48;7.00;;;;;;;13.59;100.00;93455.72;5110962;28;20044;-72
2022/09/08 01:22:26;;;;;;;8.20;6.45;;;;;;;13.60;100.00;93458.09;5113578;28;20044;-72
2022/09/08 01:25:04;;;;;;;8.40;7.18;;;;;;;13.63;100.00;93460.25;5113575;28;20420;-72
2022/09/08 01:27:34;;;;;;;8.35;6.50;;;;;;;13.59;100.00;93460.91;5113811;28;20070;-72
2022/09/08 01:30:04;;;;;;;8.05;7.25;;;;;;;13.53;100.00;93461.78;5112894;28;20044;-72
2022/09/08 01:32:34;;;;;;;10.30;7.40;;;;;;;13.52;100.00;93465.38;5113283;28;20461;-72
2022/09/08 01:35:00;;;;;;;10.43;7.20;;;;;;;13.54;100.00;93466.72;5112911;28;20047;-72
2022/09/08 01:37:27;;;;;;;8.05;7.25;;;;;;;13.54;100.00;93466.72;5112846;28;20048;-72
2022/09/08 01:39:56;;;;;;;10.32;7.43;;;;;;;13.52;100.00;93467.97;5113087;28;20051;-72
2022/09/08 01:42:23;;;;;;;9.27;7.75;;;;;;;13.52;100.00;93467.97;5112927;28;20082;-72
2022/09/08 01:44:51;;;;;;;8.00;7.20;;;;;;;13.45;100.00;93462.84;5112684;28;20055;-73
2022/09/08 01:47:18;;;;;;;8.85;7.57;;;;;;;13.45;100.00;93468.03;5112907;28;20043;-73
2022/09/08 01:49:44;;;;;;;9.85;7.78;;;;;;;13.45;100.00;93470.59;5112604;28;20044;-73
2022/09/08 01:52:11;;;;;;;8.15;6.93;;;;;;;13.44;100.00;93471.63;5112913;28;20040;-73
2022/09/08 01:54:38;;;;;;;8.15;7.03;;;;;;;13.42;100.00;93460.72;5112568;28;20077;-73
2022/09/08 01:57:05;;;;;;;9.35;7.18;;;;;;;13.38;100.00;93455.19;5112425;28;20047;-73
2022/09/08 01:59:32;;;;;;;8.55;7.65;;;;;;;13.40;100.00;93447.25;5112362;28;20044;-73
2022/09/08 02:02:00;;;;;;;9.48;7.70;;;;;;;13.37;100.00;93453.63;5112383;28;20040;-72
2022/09/08 02:04:26;;;;;;;8.95;7.80;;;;;;;13.34;100.00;93454.09;5112591;28;20065;-72
2022/09/08 02:06:53;;;;;;;8.68;7.40;;;;;;;13.32;100.00;93449.16;5112147;27;20100;-72
2022/09/08 02:09:20;;;;;;;8.15;7.32;;;;;;;13.32;100.00;93448.34;5112648;27;20039;-72
2022/09/08 02:11:48;;;;;;;8.65;7.85;;;;;;;13.24;100.00;93441.72;5112538;28;20521;-72
2022/09/08 02:14:15;;;;;;;9.93;7.55;;;;;;;13.22;100.00;93436.78;5112324;28;20051;-72
2022/09/08 02:16:43;;;;;;;9.38;8.45;;;;;;;13.19;100.00;93431.28;5112359;28;20092;-72
2022/09/08 02:19:12;;;;;;;10.52;8.60;;;;;;;13.18;100.00;93430.50;5112294;28;20411;-72
2022/09/08 02:21:39;;;;;;;9.90;8.48;;;;;;;13.08;100.00;93419.91;5112359;28;20138;-72
2022/09/08 02:24:06;;;;;;;8.98;8.07;;;;;;;13.05;100.00;93410.06;5112451;28;20042;-72
2022/09/08 02:26:33;;;;;;;8.75;7.80;;;;;;;13.18;100.00;93432.28;5112051;28;20469;-72
2022/09/08 02:29:00;;;;;;;8.98;7.65;;;;;;;13.21;100.00;93426.69;5111942;28;20491;-72
2022/09/08 02:31:28;;;;;;;10.88;8.38;;;;;;;13.17;100.00;93423.75;5110921;28;20075;-73
2022/09/08 02:33:55;;;;;;;9.50;8.48;;;;;;;13.13;100.00;93416.66;5111861;28;20096;-73
2022/09/08 02:36:23;;;;;;;10.23;7.80;;;;;;;13.17;100.00;93422.97;5112025;28;20407;-72
2022/09/08 02:38:51;;;;;;;8.90;7.82;;;;;;;13.19;100.00;93418.41;5111962;28;20052;-72
2022/09/08 02:41:17;;;;;;;10.10;8.32;;;;;;;13.15;100.00;93418.03;5111898;28;20039;-73
2022/09/08 02:43:44;;;;;;;10.13;9.10;;;;;;;13.15;100.00;93425.75;5111666;28;20096;-72
2022/09/08 02:46:11;;;;;;;10.50;7.70;;;;;;;13.03;100.00;93415.44;5111466;28;20055;-72
2022/09/08 02:48:39;;;;;;;8.57;7.63;;;;;;;13.05;100.00;93430.69;5111341;28;20044;-72
2022/09/08 02:51:08;;;;;;;9.23;8.30;;;;;;;13.01;100.00;93427.72;5111361;28;20499;-73
2022/09/08 02:53:38;;;;;;;9.32;8.30;;;;;;;12.97;100.00;93426.63;5111267;28;20035;-72
2022/09/08 02:56:05;;;;;;;10.07;8.13;;;;;;;12.92;100.00;93422.09;5111590;28;20044;-72
2022/09/08 02:58:33;;;;;;;10.30;9.20;;;;;;;12.88;100.00;93426.13;5111314;28;20048;-72
2022/09/08 03:01:00;;;;;;;11.15;9.93;;;;;;;12.89;100.00;93427.72;5111325;28;20073;-72
2022/09/08 03:03:27;;;;;;;10.80;9.70;;;;;;;12.87;100.00;93432.28;5111488;28;20100;-72
2022/09/08 03:05:54;;;;;;;11.40;10.23;;;;;;;12.84;100.00;93419.84;5110966;28;20556;-72
2022/09/08 03:08:21;;;;;;;10.98;9.48;;;;;;;12.84;100.00;93427.56;5111729;28;20525;-72
2022/09/08 03:10:49;;;;;;;10.30;9.23;;;;;;;12.85;100.00;93423.97;5111386;28;20047;-72
2022/09/08 03:13:17;;;;;;;10.15;8.82;;;;;;;12.85;100.00;93425.75;5110986;28;20526;-72
2022/09/08 03:15:44;;;;;;;10.20;9.20;;;;;;;12.81;100.00;93423.63;5111006;28;20100;-72
2022/09/08 03:18:11;;;;;;;9.65;8.68;;;;;;;12.83;100.00;93426.78;5111309;28;20040;-72
2022/09/08 03:20:39;;;;;;;9.85;8.60;;;;;;;12.78;100.00;93426.63;5111202;28;20100;-72
2022/09/08 03:23:07;;;;;;;10.40;8.40;;;;;;;12.77;100.00;93427.66;5111126;28;20051;-72
2022/09/08 03:25:36;;;;;;;9.40;8.50;;;;;;;12.70;100.00;93425.16;5110646;28;20092;-72
2022/09/08 03:28:05;;;;;;;9.85;8.85;;;;;;;12.68;100.00;93432.31;5110853;28;20057;-72
2022/09/08 03:30:32;;;;;;;10.25;8.32;;;;;;;12.66;100.00;93433.53;5110840;28;20043;-72
2022/09/08 03:32:59;;;;;;;12.10;9.43;;;;;;;12.65;100.00;93429.38;5111113;28;20120;-72
2022/09/08 03:35:26;;;;;;;10.27;9.27;;;;;;;12.63;100.00;93423.69;5110987;28;20071;-73
2022/09/08 03:37:54;;;;;;;10.00;8.95;;;;;;;12.65;100.00;93435.31;5110871;28;20047;-73
2022/09/08 03:40:21;;;;;;;12.02;9.40;;;;;;;12.65;100.00;93430.16;5110433;28;20163;-73
2022/09/08 03:42:48;;;;;;;9.85;8.73;;;;;;;12.59;100.00;93425.88;5110416;28;20051;-72
2022/09/08 03:45:18;;;;;;;9.88;8.75;;;;;;;12.58;100.00;93426.88;5110438;28;20086;-72
2022/09/08 03:47:45;;;;;;;9.90;8.90;;;;;;;12.53;100.00;93427.53;5110294;28;20055;-72
2022/09/08 03:50:14;;;;;;;10.63;9.55;;;;;;;12.36;100.00;93411.09;5110090;28;20039;-72
2022/09/08 03:52:40;;;;;;;10.20;9.00;;;;;;;12.47;100.00;93437.91;5110362;28;20048;-73
2022/09/08 03:55:08;;;;;;;13.38;10.70;;;;;;;12.47;100.00;93441.28;5110601;28;20108;-73
2022/09/08 03:57:35;;;;;;;12.05;10.18;;;;;;;12.47;100.00;93443.06;5110335;28;20167;-73
2022/09/08 04:00:04;;;;;;;12.13;10.93;;;;;;;12.34;100.00;93425.97;5110238;28;20043;-73
2022/09/08 04:02:32;;;;;;;14.52;12.30;;;;;;;12.43;100.00;93443.50;5110426;28;20048;-73
2022/09/08 04:04:59;;;;;;;12.60;9.90;;;;;;;12.43;100.00;93453.00;5110600;28;20062;-73
2022/09/08 04:07:28;;;;;;;12.45;11.15;;;;;;;12.41;100.00;93450.66;5109931;28;20043;-73
2022/09/08 04:09:56;;;;;;;11.48;10.13;;;;;;;12.39;100.00;93447.50;5109811;28;20043;-73
2022/09/08 04:12:23;;;;;;;12.77;10.45;;;;;;;12.39;100.00;93441.56;5109969;28;20040;-73
2022/09/08 04:14:51;;;;;;;13.90;10.75;;;;;;;12.28;100.00;93419.88;5110188;28;20092;-72
2022/09/08 04:17:19;;;;;;;11.60;10.13;;;;;;;12.46;100.00;93449.22;5109883;28;20054;-72
2022/09/08 04:19:50;;;;;;;12.18;10.70;;;;;;;12.40;100.00;93438.78;5109970;28;20092;-73
2022/09/08 04:22:17;;;;;;;11.93;10.02;;;;;;;12.46;100.00;93444.06;5109683;28;20050;-72
2022/09/08 04:24:45;;;;;;;12.00;10.50;;;;;;;12.47;100.00;93449.00;5109742;28;20093;-72
2022/09/08 04:27:13;;;;;;;13.68;10.32;;;;;;;12.33;100.00;93411.50;5109936;28;20183;-73
2022/09/08 04:29:40;;;;;;;14.70;10.38;;;;;;;12.51;100.00;93444.22;5109778;28;20039;-73
2022/09/08 04:32:07;;;;;;;13.63;10.43;;;;;;;12.51;100.00;93439.06;5109661;28;20104;-73
2022/09/08 04:34:34;;;;;;;17.27;11.27;;;;;;;12.53;100.00;93434.47;5109568;28;20130;-73
2022/09/08 04:37:06;;;;;;;14.00;10.82;;;;;;;12.56;100.00;93434.81;5109362;28;20043;-72
2022/09/08 04:39:33;;;;;;;12.38;10.32;;;;;;;12.64;100.00;93438.13;5109636;28;21206;-72
2022/09/08 04:42:00;;;;;;;18.67;12.10;;;;;;;12.68;100.00;93436.66;5109360;28;20498;-73
2022/09/08 04:44:27;;;;;;;16.38;11.35;;;;;;;12.68;100.00;93434.09;5109490;28;20048;-72
2022/09/08 04:46:54;;;;;;;13.63;10.40;;;;;;;12.63;100.00;93424.44;5109160;28;20047;-72
2022/09/08 04:49:21;;;;;;;15.70;10.63;;;;;;;12.77;100.00;93444.91;5109046;28;20127;-72
2022/09/08 04:51:50;;;;;;;13.95;10.85;;;;;;;12.73;100.00;93434.22;5109195;28;20047;-72
2022/09/08 04:54:18;;;;;;;11.40;10.20;;;;;;;12.77;100.00;93435.38;5108670;28;20043;-72
2022/09/08 04:56:45;;;;;;;15.93;11.05;;;;;;;12.74;100.00;93422.94;5108969;28;20128;-72
2022/09/08 04:59:11;;;;;;;17.80;10.52;;;;;;;12.86;100.00;93433.28;5109051;28;20048;-72
2022/09/08 05:01:38;;;;;;;13.10;10.27;;;;;;;12.92;100.00;93439.38;5109503;28;20092;-72
2022/09/08 05:04:05;;;;;;;17.67;10.48;;;;;;;12.96;100.00;93446.44;5109222;28;20039;-72
2022/09/08 05:06:35;;;;;;;17.55;11.25;;;;;;;12.90;100.00;93431.84;5109140;28;20089;-72
2022/09/08 05:09:03;;;;;;;20.38;12.07;;;;;;;13.08;100.00;93456.81;5109135;28;20075;-72
2022/09/08 05:11:33;;;;;;;21.15;11.55;;;;;;;13.13;100.00;93457.94;5108953;28;20043;-72
2022/09/08 05:14:00;;;;;;;20.42;12.10;;;;;;;13.15;100.00;93456.72;5109368;28;20043;-72
2022/09/08 05:16:29;;;;;;;19.55;13.20;;;;;;;13.18;100.00;93460.66;5109269;28;20051;-72
2022/09/08 05:18:57;;;;;;;19.90;13.63;;;;;;;13.14;100.00;93468.03;5109118;28;20051;-72
2022/09/08 05:21:25;;;;;;;18.77;13.32;;;;;;;13.15;100.00;93461.88;5109138;28;20043;-72
2022/09/08 05:23:53;;;;;;;18.42;13.60;;;;;;;13.16;100.00;93472.97;5108815;28;20043;-72
2022/09/08 05:26:21;;;;;;;17.55;13.48;;;;;;;13.29;100.00;93482.34;5109086;28;20043;-72
2022/09/08 05:28:50;;;;;;;15.32;12.43;;;;;;;13.40;100.00;93479.00;5108986;28;20052;-72
2022/09/08 05:31:19;;;;;;;13.98;12.48;;;;;;;13.31;100.00;93481.13;5108688;28;20093;-73
2022/09/08 05:33:46;;;;;;;14.98;11.93;;;;;;;13.33;100.00;93481.69;5108768;28;20101;-73
2022/09/08 05:36:15;;;;;;;20.15;12.88;;;;;;;13.29;100.00;93470.22;5109138;28;20445;-72
2022/09/08 05:38:43;;;;;;;17.27;12.95;;;;;;;13.39;100.00;93467.13;5108639;28;20461;-73
2022/09/08 05:41:10;;;;;;;20.60;13.23;;;;;;;13.49;100.00;93472.56;5108752;28;20040;-72
2022/09/08 05:43:37;;;;;;;16.77;13.55;;;;;;;13.58;100.00;93479.97;5108642;28;20036;-73
2022/09/08 05:46:06;;;;;;;15.68;13.40;;;;;;;13.73;100.00;93471.81;5108502;28;20069;-72
2022/09/08 05:48:33;;;;;;;16.85;12.80;;;;;;;13.84;100.00;93473.63;5108706;28;20067;-72
2022/09/08 05:51:00;;;;;;;18.52;12.52;;;;;;;14.03;100.00;93481.28;5108584;28;20487;-72
2022/09/08 05:53:28;;;;;;;15.70;11.95;;;;;;;14.20;100.00;93476.22;5103625;28;20450;-72
2022/09/08 05:55:57;;;;;;;16.67;12.07;;;;;;;14.40;100.00;93473.28;5106883;28;21104;-72
2022/09/08 05:58:24;;;;;;;20.25;11.75;;;;;;;14.61;100.00;93473.72;5108292;28;20047;-72
2022/09/08 06:00:56;;;;;;;17.30;11.43;;;;;;;14.85;100.00;93478.06;5108344;28;20491;-73
2022/09/08 06:03:24;;;;;;;13.63;12.15;;;;;;;14.93;100.00;93469.94;5108865;28;20071;-72
2022/09/08 06:05:51;;;;;;;15.75;12.10;;;;;;;15.12;100.00;93477.50;5091804;28;20048;-72
2022/09/08 06:08:20;;;;;;;16.25;10.70;;;;;;;15.37;100.00;93484.97;5092469;28;20109;-72
2022/09/08 06:10:52;;;;;;;16.33;11.55;;;;;;;15.62;100.00;93492.38;5092081;28;20109;-72
2022/09/08 06:13:21;;;;;;;15.82;12.20;;;;;;;15.83;100.00;93487.53;5092579;28;20093;-72
2022/09/08 06:15:48;;;;;;;19.58;12.85;;;;;;;16.00;100.00;93487.56;5092221;28;20097;-72
2022/09/08 06:18:15;;;;;;;17.50;13.25;;;;;;;16.12;100.00;93476.31;5092489;28;20131;-72
2022/09/08 06:20:44;;;;;;;22.48;13.05;;;;;;;16.42;100.00;93490.72;5091893;28;20533;-72
2022/09/08 06:23:11;;;;;;;25.23;13.05;;;;;;;16.67;100.00;93494.69;5092294;28;20075;-72
2022/09/08 06:25:42;;;;;;;21.33;13.95;;;;;;;16.72;100.00;93509.53;5092245;28;20131;-72
2022/09/08 06:28:26;;;;;;;24.38;11.85;;;;;;;16.82;100.00;93513.00;5091882;28;20495;-72
2022/09/08 06:30:55;;;;;;;18.38;11.52;;;;;;;16.96;100.00;93512.66;5091824;28;20044;-72
2022/09/08 06:33:29;;;;;;;26.15;14.10;;;;;;;17.07;100.00;93511.78;5103837;28;20058;-72
2022/09/08 06:36:07;;;;;;;18.52;12.73;;;;;;;17.06;100.00;93506.84;5092900;27;20144;-72
2022/09/08 06:38:40;;;;;;;29.38;11.52;;;;;;;16.77;100.00;93507.78;5091981;28;20048;-72
2022/09/08 06:41:12;;;;;;;20.88;11.90;;;;;;;16.56;100.00;93496.34;5091726;28;20093;-72
2022/09/08 06:43:42;;;;;;;22.63;12.13;;;;;;;16.75;100.00;93496.09;5091841;28;20129;-72
2022/09/08 06:46:18;;;;;;;22.42;11.75;;;;;;;16.85;100.00;93508.38;5091470;28;20420;-72
2022/09/08 06:48:46;;;;;;;18.77;11.15;;;;;;;17.14;100.00;93510.81;5091097;28;20659;-72
2022/09/08 06:51:27;;;;;;;17.27;11.32;;;;;;;17.47;100.00;93522.84;5091639;28;20047;-72
2022/09/08 06:54:05;;;;;;;14.25;9.98;;;;;;;17.62;100.00;93517.03;5091553;28;20116;-72
2022/09/08 06:56:44;;;;;;;16.20;11.27;;;;;;;18.03;100.00;93523.59;5090977;28;20036;-72
2022/09/08 06:59:25;;;;;;;20.25;11.35;;;;;;;18.51;100.00;93521.09;5094173;28;20043;-72
2022/09/08 07:02:02;;;;;;;15.43;10.68;;;;;;;19.13;100.00;93527.66;5091044;28;20093;-72
2022/09/08 07:04:42;;;;;;;19.23;10.15;;;;;;;19.50;97.06;93535.31;5091548;28;20044;-72
2022/09/08 07:07:19;;;;;;;18.50;10.25;;;;;;;19.87;96.69;93524.94;5090955;28;20044;-72
2022/09/08 07:09:52;;;;;;;14.82;9.18;;;;;;;20.43;91.28;93545.03;5091171;28;20116;-73
2022/09/08 07:12:35;;;;;;;15.70;9.68;;;;;;;20.76;90.02;93544.72;5090999;28;20043;-72
2022/09/08 07:15:20;;;;;;;17.95;9.60;;;;;;;21.19;88.11;93551.38;5091629;28;20448;-72
2022/09/08 07:17:51;;;;;;;18.93;9.17;;;;;;;21.23;85.92;93555.03;5090387;28;20068;-73
2022/09/08 07:20:17;;;;;;;15.70;8.23;;;;;;;21.60;86.12;93553.81;5090861;28;20043;-73
2022/09/08 07:22:50;;;;;;;15.45;7.97;;;;;;;21.78;85.04;93558.69;5090810;28;20040;-72
2022/09/08 07:25:22;;;;;;;17.48;8.05;;;;;;;21.76;85.05;93536.22;5090863;28;20051;-72
2022/09/08 07:27:54;;;;;;;13.18;8.50;;;;;;;22.15;83.87;93545.13;5090702;28;20117;-73
2022/09/08 07:30:21;;;;;;;14.98;8.57;;;;;;;22.43;81.88;93552.47;5092380;28;20519;-73
2022/09/08 07:32:52;;;;;;;17.02;8.70;;;;;;;22.63;82.46;93546.28;5109656;28;20191;-73
2022/09/08 07:35:28;;;;;;;13.32;8.40;;;;;;;22.72;82.09;93550.94;5097199;28;20040;-73
2022/09/08 07:38:02;;;;;;;;;;;;;;;22.81;80.38;93557.09;5090892;28;20742;-73
2022/09/08 07:40:40;;;;;;;18.65;10.35;;;;;;;22.75;84.60;93547.75;5090436;28;20427;-73
2022/09/08 07:43:11;;;;;;;16.13;9.18;;;;;;;22.66;84.24;93537.88;5090641;28;20054;-73
2022/09/08 07:45:42;;;;;;;14.95;9.13;;;;;;;22.62;85.93;93542.09;5104531;28;20134;-73
2022/09/08 07:48:21;;;;;;;19.60;9.57;;;;;;;22.48;87.51;93538.53;5090504;28;20105;-73
2022/09/08 07:50:56;;;;;;;12.57;7.90;;;;;;;22.36;88.94;93534.44;5090041;28;20462;-73
2022/09/08 07:53:45;;;;;;;14.55;8.32;;;;;;;22.18;92.02;93530.69;5090152;28;20059;-73
2022/09/08 07:56:15;;;;;;;10.32;7.78;;;;;;;22.09;94.59;93527.91;5090521;28;20097;-73
2022/09/08 07:58:51;;;;;;;10.60;7.60;;;;;;;22.05;93.68;93526.88;5090316;28;20581;-73
2022/09/08 08:01:25;;;;;;;;;;;;;;;21.99;95.87;93536.59;5090947;28;20051;-73
2022/09/08 08:04:06;;;;;;;9.38;8.10;;;;;;;21.87;94.19;93534.34;5089898;28;20445;-72
2022/09/08 08:06:38;;;;;;;11.65;8.40;;;;;;;21.88;95.87;93533.28;5090364;28;20043;-72
2022/09/08 08:09:18;;;;;;;9.48;7.53;;;;;;;21.89;95.11;93534.03;5091366;28;20051;-72
2022/09/08 08:11:54;;;;;;;12.77;8.13;;;;;;;21.88;96.25;93533.28;5092391;28;20496;-72
2022/09/08 08:14:30;;;;;;;10.45;7.78;;;;;;;21.88;96.31;93535.09;5089856;28;20050;-72
2022/09/08 08:17:11;;;;;;;10.63;7.60;;;;;;;21.95;93.59;93534.78;5089858;28;20105;-73
2022/09/08 08:20:01;;;;;;;14.90;7.63;;;;;;;22.05;92.27;93533.94;5090060;28;20168;-73
2022/09/08 08:22:42;;;;;;;17.00;8.52;;;;;;;21.98;93.64;93493.19;5089847;28;20059;-73
2022/09/08 08:25:18;;;;;;;12.02;8.13;;;;;;;22.45;91.99;93533.88;5092456;28;20044;-73
2022/09/08 08:27:52;;;;;;;11.65;7.03;;;;;;;22.69;90.23;93533.94;5089082;28;20048;-73
2022/09/08 08:30:20;;;;;;;10.23;7.03;;;;;;;22.88;87.43;93535.81;5089232;28;20090;-73
2022/09/08 08:32:57;;;;;;;10.15;6.82;;;;;;;22.91;85.22;93540.50;5108533;28;20051;-73
2022/09/08 08:35:32;;;;;;;11.40;6.40;;;;;;;22.97;83.28;93539.41;5109438;28;20109;-73
2022/09/08 08:38:00;;;;;;;12.40;6.93;;;;;;;22.98;82.22;93540.94;5109462;27;20051;-73
2022/09/08 08:40:48;;;;;;;11.23;6.03;;;;;;;22.81;83.08;93508.13;5106668;28;20184;-73
2022/09/08 08:43:37;;;;;;;13.40;6.38;;;;;;;23.08;82.80;93526.94;5101875;28;20043;-73
2022/09/08 08:46:22;;;;;;;10.63;6.70;;;;;;;23.18;83.72;93523.41;5096991;28;20624;-73
2022/09/08 08:49:01;;;;;;;10.18;7.43;;;;;;;23.34;82.37;93516.94;5092324;28;20059;-73
2022/09/08 08:51:43;;;;;;;8.95;6.80;;;;;;;23.47;81.43;93504.22;5088456;28;20047;-73
2022/09/08 08:54:28;;;;;;;10.45;5.70;;;;;;;23.64;80.10;93505.56;5085581;28;20043;-73
2022/09/08 08:57:00;;;;;;;;;;;;;;;23.89;80.40;93502.56;5087833;28;20095;-73
2022/09/08 08:59:51;;;;;;;9.23;6.18;;;;;;;24.03;80.05;93499.22;5089249;28;19924;-73
2022/09/08 09:02:30;;;;;;;14.27;7.43;;;;;;;24.29;79.28;93488.31;5089043;28;20492;-74
2022/09/08 09:05:29;;;;;;;11.50;6.28;;;;;;;24.59;77.13;93494.09;5089033;28;20500;-73
2022/09/08 09:08:36;;;;;;;8.20;6.28;;;;;;;24.91;76.15;93484.56;5089231;28;20484;-74
2022/09/08 09:11:23;;;;;;;8.02;5.57;;;;;;;25.09;75.11;93475.00;5089114;28;20050;-74
2022/09/08 09:14:46;;;;;;;14.38;7.13;;;;;;;25.33;73.20;93484.50;5089394;28;20431;-73
2022/09/08 09:17:25;;;;;;;9.75;5.90;;;;;;;25.41;72.72;93454.09;5087177;28;20511;-74
2022/09/08 09:20:15;;;;;;;8.13;5.97;;;;;;;25.73;70.19;93473.41;5088960;28;20466;-74
2022/09/08 09:22:53;;;;;;;10.25;6.10;;;;;;;25.86;69.11;93469.16;5088510;28;20785;-74
2022/09/08 09:25:28;;;;;;;9.88;6.18;;;;;;;25.97;68.12;93464.44;5087952;28;20446;-74
2022/09/08 09:28:10;;;;;;;8.15;5.68;;;;;;;26.02;68.35;93461.66;5089043;28;20048;-73
2022/09/08 09:30:51;;;;;;;7.13;5.57;;;;;;;26.15;67.30;93454.78;5089090;28;20063;-74
2022/09/08 09:33:47;;;;;;;8.35;5.90;;;;;;;26.30;66.64;93454.72;5100360;28;20044;-74
2022/09/08 09:36:47;;;;;;;9.23;5.45;;;;;;;26.48;65.92;93453.69;5099436;28;20493;-74
2022/09/08 09:39:25;;;;;;;9.48;6.07;;;;;;;26.56;64.72;93449.56;5068019;28;20105;-74
2022/09/08 09:42:10;;;;;;;7.22;5.45;;;;;;;26.77;65.34;93451.63;5093106;28;20098;-74
2022/09/08 09:45:02;;;;;;;11.48;6.32;;;;;;;26.94;64.41;93446.44;5092888;28;20044;-74
2022/09/08 09:48:05;;;;;;;6.68;4.90;;;;;;;27.17;62.24;93441.03;5092612;28;20052;-74
2022/09/08 09:51:11;;;;;;;7.75;5.30;;;;;;;27.41;62.08;93439.81;5092625;28;20056;-74
2022/09/08 09:54:06;;;;;;;9.05;5.75;;;;;;;27.47;61.16;93429.88;5092882;28;20113;-74
2022/09/08 09:57:08;;;;;;;6.72;4.78;;;;;;;27.68;60.25;93422.13;5093006;28;20106;-75
2022/09/08 10:00:14;;;;;;;6.20;5.03;;;;;;;27.67;58.52;93388.91;5092471;28;20097;-75
2022/09/08 10:03:15;;;;;;;8.48;5.10;;;;;;;27.94;58.01;93404.69;5092690;28;20048;-75
2022/09/08 10:06:12;;;;;;;6.82;5.03;;;;;;;27.77;56.95;93395.72;5092281;28;20052;-75
2022/09/08 10:09:21;;;;;;;7.07;4.70;;;;;;;27.88;57.80;93385.63;5092542;28;20101;-75
2022/09/08 10:12:25;;;;;;;6.05;4.75;;;;;;;27.74;57.36;93385.81;5092558;28;20488;-75
2022/09/08 10:15:29;;;;;;;8.05;5.18;;;;;;;27.91;57.49;93377.06;5092147;28;20039;-75
2022/09/08 10:18:32;;;;;;;6.30;5.47;;;;;;;28.10;55.50;93370.63;5092019;28;20090;-75
2022/09/08 10:21:23;;;;;;;6.22;4.38;;;;;;;28.21;55.50;93366.56;5068826;28;20102;-74
2022/09/08 10:24:23;;;;;;;5.97;4.55;;;;;;;28.41;53.56;93359.03;5079339;28;20048;-75
2022/09/08 10:27:20;;;;;;;6.10;4.93;;;;;;;28.64;54.01;93364.03;5087166;28;20333;-75
2022/09/08 10:30:42;;;;;;;8.88;4.85;;;;;;;28.79;53.64;93362.72;5089434;28;20048;-74
2022/09/08 10:33:51;;;;;;;5.55;4.25;;;;;;;28.88;53.27;93358.16;5038846;28;20582;-74
2022/09/08 10:36:25;;;;;;;6.78;4.32;;;;;;;28.99;52.39;93357.75;5089882;28;20044;-74
2022/09/08 10:38:58;;;;;;;6.10;4.15;;;;;;;29.10;51.79;93358.91;5091798;28;20052;-74
2022/09/08 10:41:57;;;;;;;5.03;3.80;;;;;;;29.15;49.42;93353.44;5091289;28;20044;-75
2022/09/08 10:44:42;;;;;;;6.13;4.22;;;;;;;29.12;51.53;93351.44;5091377;28;20055;-74
2022/09/08 10:47:42;;;;;;;5.05;3.90;;;;;;;29.26;50.85;93353.81;5091581;28;20571;-74
2022/09/08 10:50:22;;;;;;;5.95;3.83;;;;;;;29.11;49.68;93339.31;5091252;28;20056;-74
2022/09/08 10:53:10;;;;;;;4.70;3.72;;;;;;;29.22;47.39;93331.75;5090652;28;20048;-75
2022/09/08 10:55:58;;;;;;;4.57;3.47;;;;;;;29.31;47.76;93342.25;5089274;28;20519;-75
2022/09/08 10:58:50;;;;;;;4.53;3.80;;;;;;;29.38;48.88;93334.56;5091996;28;20040;-75
2022/09/08 11:01:39;;;;;;;8.48;3.50;;;;;;;29.45;47.08;93336.69;5091696;28;20056;-75
2022/09/08 11:04:31;;;;;;;9.15;3.95;;;;;;;29.69;48.72;93330.72;5091337;28;20093;-75
2022/09/08 11:07:16;;;;;;;5.38;4.10;;;;;;;29.77;49.43;93325.66;5057349;28;20044;-75
2022/09/08 11:09:57;;;;;;;4.85;3.67;;;;;;;29.95;46.04;93320.94;5091183;28;20064;-75
2022/09/08 11:12:49;;;;;;;7.65;3.90;;;;;;;30.06;49.22;93322.03;5091013;28;20388;-75
2022/09/08 11:15:56;;;;;;;6.85;3.97;;;;;;;30.06;47.80;93297.41;5090928;28;20090;-75
2022/09/08 11:18:30;;;;;;;5.28;4.43;;;;;;;30.36;46.62;93316.53;5091024;28;20048;-75
2022/09/08 11:21:01;;;;;;;4.45;3.70;;;;;;;30.35;45.45;93322.16;5091243;28;20047;-75
2022/09/08 11:23:42;;;;;;;5.03;3.38;;;;;;;30.09;44.27;93304.72;5090807;28;20139;-76
2022/09/08 11:26:28;;;;;;;5.45;3.42;;;;;;;30.27;46.80;93316.66;5091215;28;20044;-75
2022/09/08 11:29:02;;;;;;;5.22;3.80;;;;;;;30.44;45.65;93319.41;5090707;28;20059;-75
2022/09/08 11:31:37;;;;;;;4.40;3.55;;;;;;;30.42;47.15;93313.66;5090971;28;20060;-75
2022/09/08 11:34:20;;;;;;;6.00;3.75;;;;;;;30.62;44.63;93327.88;5104745;28;20044;-76
2022/09/08 11:37:11;;;;;;;5.70;3.40;;;;;;;30.77;46.19;93329.88;5090680;28;20051;-75
2022/09/08 11:39:53;;;;;;;6.47;3.50;;;;;;;30.80;46.37;93323.13;5090781;28;20039;-75
2022/09/08 11:42:47;;;;;;;5.72;3.72;;;;;;;30.80;43.22;93323.91;5090733;28;20043;-75
2022/09/08 11:45:25;;;;;;;5.53;4.00;;;;;;;30.99;45.12;93325.16;5090349;28;20052;-75
2022/09/08 11:48:09;;;;;;;6.10;3.58;;;;;;;30.90;42.36;93314.69;5090252;28;20044;-76
2022/09/08 11:50:40;;;;;;;6.47;3.80;;;;;;;30.90;42.96;93325.31;5090611;28;20446;-75
2022/09/08 11:53:48;;;;;;;5.22;3.45;;;;;;;30.92;42.12;93324.97;5090156;28;20055;-75
2022/09/08 11:56:34;;;;;;;6.22;3.60;;;;;;;30.07;40.45;93315.63;5088913;28;20050;-75
2022/09/08 11:59:25;;;;;;;6.55;3.78;;;;;;;29.81;42.92;93311.41;5090257;28;20048;-75
2022/09/08 12:02:09;;;;;;;5.35;4.50;;;;;;;30.26;45.55;93316.97;5090198;28;20507;-75
2022/09/08 12:04:50;;;;;;;6.95;4.57;;;;;;;30.53;44.31;93318.19;5089882;28;20503;-75